Time;durP1;ratioP1;P1;durP2;ratioP2;P2;SDS_P1;SDS_P2;PMS_P1;PMS_P2;Temp;Humidity;BMP_temperature;BMP_pressure;BME280_temperature;BME280_humidity;BME280_pressure;Samples;Min_cycle;Max_cycle;Signal;HPM_P1;HPM_P2
2024/02/05 00:01:52;;;;;;;5.30;1.30;;;;;;;6.73;58.23;98780.27;104651;1263;64081;-62
2024/02/05 00:04:21;;;;;;;3.90;0.90;;;;;;;6.70;58.37;98769.91;103814;1263;60688;-66
2024/02/05 00:06:48;;;;;;;2.40;0.50;;;;;;;6.75;58.43;98769.29;103914;1268;63855;-63
2024/02/05 00:09:16;;;;;;;2.60;0.80;;;;;;;6.81;58.38;98763.67;103899;1263;59775;-62
2024/02/05 00:11:44;;;;;;;4.30;0.90;;;;;;;6.86;58.30;98764.94;103952;1260;61162;-67
2024/02/05 00:14:11;;;;;;;3.00;1.10;;;;;;;6.88;58.40;98761.98;104657;1260;65261;-62
2024/02/05 00:16:40;;;;;;;6.10;1.00;;;;;;;6.89;58.43;98756.02;105156;1260;61495;-62
2024/02/05 00:19:08;;;;;;;8.00;2.90;;;;;;;6.88;58.35;98753.61;103808;1260;64230;-61
2024/02/05 00:21:38;;;;;;;3.80;0.90;;;;;;;6.87;58.38;98745.08;108265;1264;59305;-62
2024/02/05 00:24:06;;;;;;;3.30;0.90;;;;;;;6.86;58.37;98736.20;108287;1259;59945;-60
2024/02/05 00:26:34;;;;;;;4.90;1.50;;;;;;;6.85;58.34;98728.48;104577;1265;64186;-59
2024/02/05 00:29:01;;;;;;;8.00;1.20;;;;;;;6.82;58.23;98726.16;105113;1260;61368;-60
2024/02/05 00:31:29;;;;;;;3.50;0.80;;;;;;;6.85;58.18;98722.05;103996;1264;65413;-66
2024/02/05 00:33:56;;;;;;;4.30;0.80;;;;;;;6.89;58.10;98717.84;105013;1260;61289;-60
2024/02/05 00:36:24;;;;;;;3.00;0.60;;;;;;;6.93;57.94;98712.61;104817;1264;59602;-58
2024/02/05 00:38:52;;;;;;;3.70;1.00;;;;;;;6.96;57.88;98714.11;104824;1263;64090;-59
2024/02/05 00:41:20;;;;;;;3.50;1.10;;;;;;;6.91;57.93;98715.88;104966;1263;60275;-62
2024/02/05 00:43:47;;;;;;;9.10;2.90;;;;;;;6.88;58.07;98718.61;104807;1258;63686;-66
2024/02/05 00:46:26;;;;;;;11.00;1.40;;;;;;;6.87;58.23;98713.81;104531;1258;59752;-60
2024/02/05 00:48:54;;;;;;;3.80;1.30;;;;;;;6.83;58.57;98707.02;104916;1261;59659;-60
2024/02/05 00:51:23;;;;;;;4.50;1.50;;;;;;;6.84;58.88;98704.85;103950;1260;69209;-63
2024/02/05 00:53:50;;;;;;;4.10;0.80;;;;;;;6.91;58.97;98697.61;104020;1260;61417;-60
2024/02/05 00:56:18;;;;;;;3.30;1.10;;;;;;;6.94;59.15;98696.66;103853;1260;62464;-60
2024/02/05 00:58:48;;;;;;;5.90;2.20;;;;;;;6.94;59.42;98696.99;104300;1260;59749;-60
2024/02/05 01:01:17;;;;;;;6.60;2.90;;;;;;;6.90;59.63;98695.79;106063;1264;59562;-59
2024/02/05 01:03:44;;;;;;;4.10;1.00;;;;;;;6.83;59.81;98682.61;105896;1260;64099;-66
2024/02/05 01:06:12;;;;;;;4.30;1.30;;;;;;;6.81;59.93;98674.51;104829;1266;60154;-60
2024/02/05 01:08:40;;;;;;;3.90;1.10;;;;;;;6.76;60.07;98664.63;104911;1260;63721;-65
2024/02/05 01:11:08;;;;;;;5.30;1.10;;;;;;;6.74;60.10;98659.30;105159;1265;59742;-60
2024/02/05 01:13:35;;;;;;;3.10;1.10;;;;;;;6.77;60.04;98661.06;104964;1260;59673;-62
2024/02/05 01:16:04;;;;;;;5.20;1.70;;;;;;;6.83;59.83;98658.05;104830;1258;62943;-65
2024/02/05 01:18:33;;;;;;;5.70;1.40;;;;;;;6.90;59.68;98653.95;105417;1265;60142;-64
2024/02/05 01:21:01;;;;;;;6.80;2.80;;;;;;;6.92;59.62;98650.13;104695;1265;62543;-64
2024/02/05 01:23:28;;;;;;;3.80;1.20;;;;;;;6.92;59.65;98641.70;104067;1260;59662;-62
2024/02/05 01:25:57;;;;;;;4.10;1.30;;;;;;;6.93;59.54;98634.66;103949;1259;59947;-63
2024/02/05 01:28:25;;;;;;;4.80;1.30;;;;;;;6.92;59.46;98631.27;104229;1262;64159;-66
2024/02/05 01:30:53;;;;;;;4.20;1.10;;;;;;;6.87;59.30;98629.58;108637;1254;61515;-65
2024/02/05 01:33:20;;;;;;;4.10;1.00;;;;;;;6.90;59.21;98633.59;108611;1257;62610;-69
2024/02/05 01:35:48;;;;;;;9.50;3.20;;;;;;;6.97;59.02;98637.77;105854;1257;59721;-61
2024/02/05 01:38:16;;;;;;;3.60;0.90;;;;;;;7.07;58.77;98630.78;105101;1262;59651;-63
2024/02/05 01:40:43;;;;;;;4.40;1.90;;;;;;;7.11;58.62;98622.18;105107;1262;64119;-68
2024/02/05 01:43:11;;;;;;;3.80;2.10;;;;;;;7.08;58.57;98613.38;104241;1257;63106;-60
2024/02/05 01:45:39;;;;;;;8.70;3.60;;;;;;;7.11;58.46;98620.99;108550;1257;63764;-62
2024/02/05 01:48:07;;;;;;;6.00;1.40;;;;;;;7.12;58.39;98620.58;108576;1256;57589;-66
2024/02/05 01:50:37;;;;;;;2.50;0.70;;;;;;;7.12;58.34;98620.41;108543;1256;58047;-63
2024/02/05 01:53:04;;;;;;;6.60;2.30;;;;;;;7.14;58.20;98615.31;108592;1256;62891;-70
2024/02/05 01:55:32;;;;;;;5.90;1.70;;;;;;;7.23;57.91;98625.10;106322;1257;61998;-68
2024/02/05 01:58:00;;;;;;;5.10;1.50;;;;;;;7.33;57.63;98625.59;105211;1257;63811;-67
2024/02/05 02:00:28;;;;;;;5.80;2.80;;;;;;;7.38;57.53;98628.05;104901;1257;59883;-64
2024/02/05 02:02:56;;;;;;;7.20;1.30;;;;;;;7.35;57.47;98619.39;104198;1262;60825;-62
2024/02/05 02:05:24;;;;;;;7.70;1.30;;;;;;;7.34;57.39;98603.52;104239;1262;64086;-66
2024/02/05 02:07:52;;;;;;;4.80;1.90;;;;;;;7.29;57.47;98605.88;104223;1257;63879;-64
2024/02/05 02:10:19;;;;;;;5.10;1.60;;;;;;;7.28;57.46;98593.93;104264;1262;62522;-64
2024/02/05 02:12:47;;;;;;;3.50;1.00;;;;;;;7.28;57.51;98593.95;104384;1262;60363;-62
2024/02/05 02:15:15;;;;;;;4.00;0.90;;;;;;;7.33;57.24;98580.06;104574;1262;59811;-69
2024/02/05 02:17:44;;;;;;;6.20;2.50;;;;;;;7.36;57.07;98583.03;104225;1256;64750;-68
2024/02/05 02:20:12;;;;;;;6.30;1.90;;;;;;;7.36;56.98;98589.63;106450;1257;60095;-66
2024/02/05 02:22:52;;;;;;;4.60;1.50;;;;;;;7.35;56.98;98597.96;105412;1257;62537;-64
2024/02/05 02:25:20;;;;;;;9.90;1.50;;;;;;;7.36;56.86;98572.95;104831;1260;59698;-62
2024/02/05 02:27:49;;;;;;;6.10;2.70;;;;;;;7.34;56.91;98562.86;104174;1255;59721;-61
2024/02/05 02:30:18;;;;;;;5.20;1.50;;;;;;;7.30;56.95;98552.36;108058;1261;64152;-60
2024/02/05 02:33:09;;;;;;;3.70;1.40;;;;;;;7.34;56.82;98545.57;104139;1257;60099;-63
2024/02/05 02:35:39;;;;;;;2.80;0.80;;;;;;;7.42;56.68;98542.64;108539;1257;71388;-67
2024/02/05 02:38:11;;;;;;;4.90;1.50;;;;;;;7.43;56.76;98549.77;108512;1257;58711;-69
2024/02/05 02:40:38;;;;;;;4.60;1.40;;;;;;;7.41;56.76;98547.99;108520;1256;61026;-70
2024/02/05 02:43:05;;;;;;;7.50;2.90;;;;;;;7.40;56.68;98543.02;105130;1257;63049;-65
2024/02/05 02:45:33;;;;;;;4.10;1.20;;;;;;;7.37;56.81;98550.69;105017;1262;60738;-70
2024/02/05 02:48:01;;;;;;;4.60;1.50;;;;;;;7.33;57.03;98542.55;105082;1257;62549;-62
2024/02/05 02:50:28;;;;;;;5.20;2.50;;;;;;;7.31;56.99;98543.20;105165;1261;60588;-70
2024/02/05 02:52:56;;;;;;;4.90;1.30;;;;;;;7.36;57.00;98534.50;105095;1256;60898;-62
2024/02/05 02:55:24;;;;;;;8.90;3.20;;;;;;;7.42;56.92;98531.66;105044;1262;64964;-70
2024/02/05 02:57:52;;;;;;;3.40;1.10;;;;;;;7.45;56.92;98535.77;105243;1262;63695;-65
2024/02/05 03:00:20;;;;;;;4.40;1.80;;;;;;;7.45;56.93;98547.12;105174;1260;62490;-63
2024/02/05 03:02:47;;;;;;;9.10;3.40;;;;;;;7.41;57.03;98537.86;105095;1257;60510;-62
2024/02/05 03:05:15;;;;;;;3.00;1.00;;;;;;;7.39;57.15;98536.56;105165;1257;60623;-66
2024/02/05 03:07:43;;;;;;;5.60;1.80;;;;;;;7.36;57.33;98534.66;105118;1260;63663;-62
2024/02/05 03:10:10;;;;;;;9.00;2.10;;;;;;;7.34;57.41;98537.57;104525;1262;61398;-68
2024/02/05 03:12:38;;;;;;;6.20;2.70;;;;;;;7.35;57.42;98536.38;104689;1262;62519;-67
2024/02/05 03:15:06;;;;;;;5.00;1.70;;;;;;;7.43;57.21;98523.78;105195;1261;60406;-65
2024/02/05 03:17:34;;;;;;;7.50;3.00;;;;;;;7.47;57.21;98524.13;105060;1256;60886;-69
2024/02/05 03:20:02;;;;;;;6.30;2.70;;;;;;;7.50;57.08;98516.62;104217;1255;65825;-62
2024/02/05 03:22:30;;;;;;;5.30;1.90;;;;;;;7.49;57.08;98514.12;104233;1258;61463;-67
2024/02/05 03:24:58;;;;;;;6.10;3.10;;;;;;;7.48;57.11;98502.56;107268;1259;66005;-61
2024/02/05 03:27:26;;;;;;;4.40;1.90;;;;;;;7.47;57.28;98489.67;105128;1260;60562;-59
2024/02/05 03:29:53;;;;;;;3.30;0.90;;;;;;;7.53;57.08;98482.50;104132;1262;60507;-61
2024/02/05 03:32:21;;;;;;;4.40;1.80;;;;;;;7.60;57.05;98472.52;104186;1256;72897;-71
2024/02/05 03:34:48;;;;;;;7.30;3.10;;;;;;;7.63;56.73;98474.49;107909;1257;61507;-61
2024/02/05 03:37:16;;;;;;;3.80;1.40;;;;;;;7.67;56.60;98464.16;108510;1258;66741;-63
2024/02/05 03:39:44;;;;;;;9.40;3.70;;;;;;;7.68;56.68;98468.45;105867;1256;60443;-66
2024/02/05 03:42:11;;;;;;;4.10;1.50;;;;;;;7.68;56.55;98468.45;104193;1257;60457;-63
2024/02/05 03:44:39;;;;;;;5.60;3.10;;;;;;;7.66;56.73;98477.95;104251;1260;64947;-61
2024/02/05 03:47:07;;;;;;;4.60;1.00;;;;;;;7.59;56.82;98491.17;106187;1257;61449;-68
2024/02/05 03:49:34;;;;;;;4.50;1.50;;;;;;;7.67;56.61;98481.42;105197;1259;63782;-71
2024/02/05 03:52:02;;;;;;;6.20;2.60;;;;;;;7.76;56.32;98494.20;105077;1256;60479;-62
2024/02/05 03:54:30;;;;;;;3.60;1.20;;;;;;;7.83;56.09;98494.06;104334;1260;63098;-65
2024/02/05 03:56:58;;;;;;;6.40;2.10;;;;;;;7.85;55.49;98500.98;108564;1257;64885;-62
2024/02/05 03:59:25;;;;;;;3.00;0.50;;;;;;;7.72;55.07;98511.38;105277;1256;60400;-64
2024/02/05 04:01:53;;;;;;;3.30;0.90;;;;;;;7.39;55.78;98527.46;104223;1256;64733;-61
2024/02/05 04:04:21;;;;;;;1.60;0.60;;;;;;;6.91;57.70;98570.48;105165;1257;63240;-61
2024/02/05 04:06:49;;;;;;;2.70;0.60;;;;;;;6.67;58.16;98595.05;105390;1260;60366;-61
2024/02/05 04:09:16;;;;;;;1.80;0.30;;;;;;;6.40;59.03;98573.00;104404;1260;64951;-65
2024/02/05 04:11:44;;;;;;;1.30;0.40;;;;;;;6.16;59.98;98563.46;106167;1262;60515;-69
2024/02/05 04:14:11;;;;;;;2.70;0.30;;;;;;;6.01;60.77;98575.10;105907;1260;63764;-69
2024/02/05 04:16:39;;;;;;;0.30;0.10;;;;;;;5.98;61.21;98576.78;105644;1258;60840;-67
2024/02/05 04:19:06;;;;;;;0.10;0.00;;;;;;;5.97;61.25;98561.88;104869;1262;61726;-68
2024/02/05 04:21:34;;;;;;;0.60;0.20;;;;;;;5.93;61.42;98559.77;104620;1262;66083;-62
2024/02/05 04:24:02;;;;;;;0.30;0.00;;;;;;;5.90;61.81;98561.27;105038;1257;60497;-64
2024/02/05 04:26:29;;;;;;;0.40;0.00;;;;;;;5.84;61.99;98558.15;106760;1257;62498;-68
2024/02/05 04:29:14;;;;;;;0.40;0.10;;;;;;;5.75;62.19;98547.65;106853;1258;60439;-69
2024/02/05 04:31:42;;;;;;;1.10;0.10;;;;;;;5.68;62.53;98547.77;106115;1256;60895;-69
2024/02/05 04:34:10;;;;;;;1.80;0.30;;;;;;;5.64;62.82;98545.83;105933;1257;69118;-69
2024/02/05 04:36:37;;;;;;;0.60;0.10;;;;;;;5.65;62.93;98542.45;105092;1263;61452;-69
2024/02/05 04:39:10;;;;;;;2.30;0.40;;;;;;;5.71;62.90;98529.91;105375;1257;63793;-70
2024/02/05 04:41:40;;;;;;;1.80;0.10;;;;;;;5.75;62.93;98528.64;105285;1258;60831;-70
2024/02/05 04:44:08;;;;;;;0.10;0.00;;;;;;;5.78;62.91;98526.69;106217;1259;60507;-68
2024/02/05 04:46:35;;;;;;;2.50;0.60;;;;;;;5.78;62.91;98518.14;105821;1262;64890;-71
2024/02/05 04:49:03;;;;;;;1.20;0.20;;;;;;;5.74;62.96;98520.04;104709;1259;60449;-72
2024/02/05 04:51:30;;;;;;;1.40;0.60;;;;;;;5.72;63.11;98523.89;104218;1263;62484;-70
2024/02/05 04:53:58;;;;;;;0.70;0.20;;;;;;;5.70;63.20;98521.64;104109;1262;61187;-67
2024/02/05 04:56:25;;;;;;;1.00;0.30;;;;;;;5.66;63.22;98523.75;106135;1261;60339;-62
2024/02/05 04:58:53;;;;;;;1.50;0.30;;;;;;;5.60;63.37;98524.98;104414;1263;64964;-68
2024/02/05 05:01:20;;;;;;;3.20;0.80;;;;;;;5.66;63.30;98514.85;104107;1262;63190;-57
2024/02/05 05:03:48;;;;;;;1.70;0.30;;;;;;;5.75;63.08;98513.04;104100;1258;62516;-57
2024/02/05 05:06:16;;;;;;;5.00;0.60;;;;;;;5.80;62.96;98503.34;104000;1263;60566;-61
2024/02/05 05:08:43;;;;;;;4.60;1.40;;;;;;;5.83;62.95;98498.88;104133;1263;60535;-58
2024/02/05 05:11:20;;;;;;;4.00;1.00;;;;;;;5.84;62.94;98511.52;104019;1258;63812;-59
2024/02/05 05:13:49;;;;;;;2.40;0.70;;;;;;;5.83;63.03;98519.21;108468;1257;61419;-59
2024/02/05 05:16:17;;;;;;;4.10;0.50;;;;;;;5.82;63.08;98517.98;108422;1258;62551;-60
2024/02/05 05:18:45;;;;;;;3.80;0.70;;;;;;;5.83;63.07;98525.23;108453;1257;59103;-58
2024/02/05 05:21:13;;;;;;;1.90;0.60;;;;;;;5.87;63.13;98522.19;108480;1256;58426;-60
2024/02/05 05:23:42;;;;;;;2.70;0.70;;;;;;;5.97;63.03;98522.17;108408;1258;63643;-60
2024/02/05 05:26:10;;;;;;;1.40;0.30;;;;;;;6.07;62.98;98524.30;104549;1263;63783;-61
2024/02/05 05:28:43;;;;;;;2.90;0.50;;;;;;;6.13;62.95;98522.46;104040;1263;63698;-64
2024/02/05 05:31:12;;;;;;;1.70;0.40;;;;;;;6.19;63.11;98520.39;108478;1258;60254;-59
2024/02/05 05:33:39;;;;;;;2.60;1.60;;;;;;;6.21;63.05;98519.83;108416;1257;58677;-61
2024/02/05 05:36:07;;;;;;;2.90;0.40;;;;;;;6.22;63.11;98523.80;108446;1256;67639;-61
2024/02/05 05:38:35;;;;;;;6.90;0.80;;;;;;;6.20;63.31;98525.52;108417;1263;60127;-59
2024/02/05 05:41:05;;;;;;;2.70;0.40;;;;;;;6.18;63.28;98508.29;108413;1257;64736;-60
2024/02/05 05:43:32;;;;;;;1.60;0.30;;;;;;;6.14;63.29;98508.84;108429;1260;58642;-59
2024/02/05 05:46:00;;;;;;;4.10;1.10;;;;;;;6.15;63.23;98515.56;108388;1259;59025;-59
2024/02/05 05:48:27;;;;;;;1.70;0.40;;;;;;;6.18;63.12;98522.81;108407;1257;66069;-65
2024/02/05 05:50:55;;;;;;;2.10;0.20;;;;;;;6.18;63.03;98526.05;108466;1258;64485;-62
2024/02/05 05:53:23;;;;;;;1.40;0.30;;;;;;;6.20;62.97;98528.55;108377;1261;63759;-60
2024/02/05 05:55:52;;;;;;;0.90;0.20;;;;;;;6.18;63.02;98522.73;108329;1257;60207;-60
2024/02/05 05:58:19;;;;;;;3.80;1.00;;;;;;;6.17;63.03;98520.08;107123;1263;60917;-60
2024/02/05 06:00:47;;;;;;;1.50;0.30;;;;;;;6.15;62.98;98512.20;106007;1257;64940;-69
2024/02/05 06:03:15;;;;;;;0.70;0.20;;;;;;;6.17;62.79;98507.03;103825;1263;61648;-60
2024/02/05 06:05:45;;;;;;;1.30;0.30;;;;;;;6.24;62.54;98501.98;103998;1257;64260;-60
2024/02/05 06:08:13;;;;;;;1.80;0.20;;;;;;;6.29;62.52;98496.98;108422;1257;58358;-62
2024/02/05 06:10:42;;;;;;;3.90;0.80;;;;;;;6.31;62.45;98491.77;108446;1257;59534;-66
2024/02/05 06:13:10;;;;;;;2.80;0.60;;;;;;;6.29;62.28;98488.30;108404;1259;63732;-60
2024/02/05 06:15:37;;;;;;;1.60;0.50;;;;;;;6.23;62.30;98485.87;108437;1263;60114;-60
2024/02/05 06:18:06;;;;;;;2.10;0.50;;;;;;;6.17;62.51;98483.85;108434;1257;63808;-63
2024/02/05 06:20:34;;;;;;;2.20;0.40;;;;;;;6.11;62.61;98484.75;108465;1257;58600;-58
2024/02/05 06:23:01;;;;;;;0.80;0.10;;;;;;;6.11;62.61;98490.14;108384;1257;60719;-61
2024/02/05 06:25:29;;;;;;;5.30;1.00;;;;;;;6.12;62.53;98488.10;107466;1258;63660;-61
2024/02/05 06:27:56;;;;;;;0.40;0.10;;;;;;;6.15;62.38;98480.15;104142;1262;60494;-59
2024/02/05 06:30:24;;;;;;;2.40;0.60;;;;;;;6.12;62.67;98473.15;104033;1263;62669;-58
2024/02/05 06:32:52;;;;;;;1.60;0.90;;;;;;;6.07;62.61;98469.59;104268;1262;60539;-58
2024/02/05 06:35:19;;;;;;;2.50;0.70;;;;;;;5.99;62.67;98477.27;104125;1265;61063;-59
2024/02/05 06:37:47;;;;;;;1.70;0.40;;;;;;;5.86;62.80;98482.61;104316;1257;63702;-59
2024/02/05 06:40:15;;;;;;;0.40;0.10;;;;;;;5.76;62.97;98488.20;104447;1264;61560;-58
2024/02/05 06:42:43;;;;;;;0.90;0.30;;;;;;;5.72;62.97;98488.73;104038;1263;63841;-58
2024/02/05 06:45:11;;;;;;;0.50;0.10;;;;;;;5.69;62.73;98490.38;104225;1257;60645;-59
2024/02/05 06:47:38;;;;;;;1.50;0.20;;;;;;;5.66;62.56;98494.50;104206;1257;62010;-59
2024/02/05 06:50:09;;;;;;;0.00;0.00;;;;;;;5.61;62.65;98489.70;104181;1262;65391;-61
2024/02/05 06:52:36;;;;;;;0.80;0.20;;;;;;;5.52;62.38;98493.17;105543;1262;61379;-59
2024/02/05 06:55:04;;;;;;;0.10;0.00;;;;;;;5.38;62.38;98488.14;104160;1263;63675;-61
2024/02/05 06:57:33;;;;;;;1.40;0.10;;;;;;;5.24;62.54;98475.97;104061;1258;60530;-59
2024/02/05 07:00:03;;;;;;;0.90;0.00;;;;;;;5.10;62.75;98469.42;105917;1260;62106;-59
2024/02/05 07:02:31;;;;;;;0.40;0.00;;;;;;;4.98;62.67;98464.55;104099;1261;63690;-62
2024/02/05 07:05:00;;;;;;;1.00;0.20;;;;;;;4.91;62.71;98456.23;104243;1257;61377;-61
2024/02/05 07:07:28;;;;;;;0.70;0.10;;;;;;;4.94;62.70;98452.91;107509;1263;75172;-60
2024/02/05 07:09:56;;;;;;;1.40;0.10;;;;;;;4.95;62.75;98449.27;107499;1260;60962;-59
2024/02/05 07:12:23;;;;;;;0.50;0.10;;;;;;;5.01;62.60;98437.27;104222;1258;61089;-60
2024/02/05 07:14:51;;;;;;;1.10;0.40;;;;;;;4.97;62.62;98439.24;108447;1257;63642;-58
2024/02/05 07:17:30;;;;;;;0.60;0.10;;;;;;;4.91;62.82;98438.17;108471;1257;61569;-58
2024/02/05 07:19:59;;;;;;;0.90;0.10;;;;;;;4.85;62.93;98436.13;108390;1257;65972;-61
2024/02/05 07:22:28;;;;;;;0.80;0.20;;;;;;;4.81;63.04;98437.35;108446;1257;59113;-62
2024/02/05 07:24:56;;;;;;;0.70;0.10;;;;;;;4.77;63.16;98436.27;108454;1256;58356;-61
2024/02/05 07:27:25;;;;;;;0.50;0.30;;;;;;;4.73;63.28;98436.09;104850;1257;64807;-61
2024/02/05 07:29:52;;;;;;;2.90;0.70;;;;;;;4.70;63.28;98443.36;108412;1257;61482;-63
2024/02/05 07:32:20;;;;;;;1.00;0.10;;;;;;;4.73;63.19;98440.46;108449;1257;66177;-59
2024/02/05 07:34:48;;;;;;;2.50;0.60;;;;;;;4.77;63.03;98434.71;108506;1256;59349;-59
2024/02/05 07:37:15;;;;;;;1.60;0.30;;;;;;;4.80;62.93;98431.16;104240;1257;61093;-60
2024/02/05 07:39:43;;;;;;;0.70;0.30;;;;;;;4.84;62.99;98429.77;104162;1263;65355;-61
2024/02/05 07:42:11;;;;;;;1.10;0.20;;;;;;;4.86;62.91;98432.18;103997;1258;62123;-61
2024/02/05 07:44:38;;;;;;;1.90;0.70;;;;;;;4.82;62.88;98435.48;104002;1257;62609;-60
2024/02/05 07:47:07;;;;;;;2.20;0.50;;;;;;;4.73;63.01;98439.95;104107;1257;61477;-61
2024/02/05 07:49:35;;;;;;;4.70;1.10;;;;;;;4.64;63.22;98442.63;107341;1257;60395;-62
2024/02/05 07:52:05;;;;;;;5.40;1.50;;;;;;;4.57;63.19;98443.20;106487;1257;63807;-63
2024/02/05 07:54:33;;;;;;;4.20;1.40;;;;;;;4.48;63.32;98434.80;108277;1258;60288;-63
2024/02/05 07:57:02;;;;;;;6.50;1.30;;;;;;;4.43;63.50;98433.45;104331;1258;63767;-64
2024/02/05 07:59:30;;;;;;;5.40;1.00;;;;;;;4.40;63.67;98432.83;104703;1259;60467;-62
2024/02/05 08:01:58;;;;;;;3.90;1.00;;;;;;;4.38;63.74;98430.06;108464;1256;58402;-62
2024/02/05 08:04:27;;;;;;;5.00;0.70;;;;;;;4.38;63.61;98431.14;106749;1256;64058;-62
2024/02/05 08:06:58;;;;;;;3.10;0.80;;;;;;;4.42;63.45;98430.27;108412;1262;61170;-63
2024/02/05 08:09:26;;;;;;;2.70;0.40;;;;;;;4.47;63.53;98425.30;104585;1257;63788;-60
2024/02/05 08:11:54;;;;;;;3.50;1.30;;;;;;;4.54;63.60;98419.89;104091;1263;60565;-60
2024/02/05 08:14:21;;;;;;;1.20;0.40;;;;;;;4.60;63.55;98427.17;104202;1258;61136;-60
2024/02/05 08:16:51;;;;;;;3.40;0.70;;;;;;;4.63;63.57;98430.73;104198;1257;65271;-55
2024/02/05 08:19:19;;;;;;;1.60;0.50;;;;;;;4.62;63.66;98424.00;104354;1262;60103;-58
2024/02/05 08:21:47;;;;;;;2.80;0.50;;;;;;;4.59;63.68;98420.81;104222;1259;62600;-59
2024/02/05 08:24:18;;;;;;;6.00;1.40;;;;;;;4.55;63.84;98418.91;104442;1257;60531;-63
2024/02/05 08:26:55;;;;;;;4.60;1.30;;;;;;;4.51;63.91;98416.30;108476;1256;58896;-64
2024/02/05 08:29:23;;;;;;;3.00;0.80;;;;;;;4.47;63.86;98414.69;108516;1257;67451;-60
2024/02/05 08:31:51;;;;;;;3.50;0.80;;;;;;;4.45;63.96;98415.95;106861;1261;61371;-56
2024/02/05 08:34:19;;;;;;;2.60;0.70;;;;;;;4.44;64.05;98414.98;104254;1257;63876;-60
2024/02/05 08:36:50;;;;;;;3.80;1.50;;;;;;;4.42;63.97;98417.56;104212;1262;60486;-62
2024/02/05 08:39:18;;;;;;;1.80;0.60;;;;;;;4.46;63.81;98423.33;108438;1256;60247;-65
2024/02/05 08:41:45;;;;;;;1.40;0.30;;;;;;;4.52;63.57;98420.38;108432;1260;78489;-62
2024/02/05 08:44:13;;;;;;;1.50;0.40;;;;;;;4.58;63.57;98424.33;105335;1257;73984;-63
2024/02/05 08:46:40;;;;;;;0.80;0.10;;;;;;;4.64;63.57;98423.88;108392;1256;65461;-56
2024/02/05 08:49:09;;;;;;;2.00;0.80;;;;;;;4.74;63.65;98426.09;108387;1257;58371;-65
2024/02/05 08:51:37;;;;;;;1.30;0.30;;;;;;;4.84;63.43;98419.30;108490;1256;59171;-62
2024/02/05 08:54:04;;;;;;;2.60;0.70;;;;;;;4.90;63.39;98408.38;108464;1257;68419;-65
2024/02/05 08:56:32;;;;;;;3.40;1.40;;;;;;;4.92;63.41;98409.06;106914;1258;61057;-63
2024/02/05 08:58:59;;;;;;;3.00;0.50;;;;;;;4.93;63.43;98397.33;105941;1257;62524;-60
2024/02/05 09:01:27;;;;;;;3.10;0.90;;;;;;;4.93;63.39;98390.05;104165;1257;62126;-60
2024/02/05 09:03:55;;;;;;;2.10;0.30;;;;;;;4.92;63.35;98382.52;104058;1258;60441;-63
2024/02/05 09:06:23;;;;;;;2.50;0.90;;;;;;;4.89;63.23;98381.90;104133;1259;65419;-61
2024/02/05 09:08:51;;;;;;;5.30;1.10;;;;;;;4.85;63.24;98382.77;104132;1262;72641;-61
2024/02/05 09:11:19;;;;;;;3.00;0.70;;;;;;;4.80;63.20;98379.08;104170;1262;63970;-60
2024/02/05 09:13:46;;;;;;;1.60;0.30;;;;;;;4.80;63.10;98379.23;108412;1257;60282;-61
2024/02/05 09:16:14;;;;;;;2.70;0.50;;;;;;;4.85;63.01;98386.29;108396;1257;58828;-60
2024/02/05 09:18:41;;;;;;;2.30;0.70;;;;;;;4.92;63.01;98375.89;106292;1260;66378;-64
2024/02/05 09:21:10;;;;;;;2.40;0.60;;;;;;;5.00;62.83;98361.66;104143;1257;60350;-59
2024/02/05 09:23:38;;;;;;;1.50;0.40;;;;;;;5.07;62.79;98350.95;108427;1257;72517;-61
2024/02/05 09:26:05;;;;;;;3.30;1.00;;;;;;;5.11;62.94;98358.36;108416;1257;59130;-59
2024/02/05 09:28:33;;;;;;;3.20;0.70;;;;;;;5.18;63.00;98350.30;105792;1262;60460;-59
2024/02/05 09:31:00;;;;;;;3.40;1.00;;;;;;;5.25;63.18;98352.78;106507;1257;75270;-59
2024/02/05 09:33:38;;;;;;;3.00;0.70;;;;;;;5.30;63.03;98365.19;108449;1256;61591;-60
2024/02/05 09:36:06;;;;;;;4.10;0.50;;;;;;;5.30;62.85;98368.70;104605;1257;66846;-59
2024/02/05 09:38:34;;;;;;;3.40;1.10;;;;;;;5.28;62.77;98365.43;104162;1257;60433;-59
2024/02/05 09:41:05;;;;;;;3.10;0.90;;;;;;;5.26;62.74;98362.11;104082;1262;60634;-59
2024/02/05 09:43:33;;;;;;;2.80;0.70;;;;;;;5.23;62.73;98363.08;108445;1262;65013;-59
2024/02/05 09:46:05;;;;;;;2.50;0.60;;;;;;;5.25;62.64;98364.09;108388;1262;64200;-57
2024/02/05 09:48:35;;;;;;;1.40;0.40;;;;;;;5.31;62.48;98367.94;104771;1256;62897;-60
2024/02/05 09:51:11;;;;;;;;;;;;;;;5.36;62.32;98365.21;104179;1258;62121;-59
2024/02/05 09:53:39;;;;;;;2.10;0.70;;;;;;;5.36;62.29;98359.46;108380;1259;58189;-61
2024/02/05 09:56:08;;;;;;;1.30;0.20;;;;;;;5.36;62.37;98356.70;105428;1257;67366;-59
2024/02/05 09:58:36;;;;;;;1.00;0.20;;;;;;;5.37;62.33;98359.55;105743;1257;61594;-62
2024/02/05 10:01:04;;;;;;;2.60;0.70;;;;;;;5.33;62.39;98357.63;108416;1256;62628;-61
2024/02/05 10:03:32;;;;;;;2.10;0.40;;;;;;;5.30;62.53;98353.45;108430;1256;58940;-64
2024/02/05 10:06:04;;;;;;;1.90;0.50;;;;;;;5.29;62.71;98346.05;104630;1256;62384;-61
2024/02/05 10:08:32;;;;;;;1.80;0.40;;;;;;;5.29;62.73;98336.23;108447;1256;67636;-60
2024/02/05 10:11:00;;;;;;;5.00;1.90;;;;;;;5.25;62.63;98322.73;107586;1257;72715;-61
2024/02/05 10:13:29;;;;;;;3.60;0.80;;;;;;;5.17;62.61;98303.13;104083;1258;63752;-61
2024/02/05 10:15:57;;;;;;;4.70;1.60;;;;;;;5.10;62.71;98302.84;104118;1257;60572;-61
2024/02/05 10:18:25;;;;;;;4.60;1.40;;;;;;;5.10;62.57;98302.88;104134;1256;60890;-60
2024/02/05 10:20:53;;;;;;;5.60;1.60;;;;;;;5.11;62.57;98303.48;104130;1262;64193;-62
2024/02/05 10:23:20;;;;;;;3.60;1.00;;;;;;;5.13;62.54;98304.00;104104;1257;61821;-60
